Terminal Aerodrome Forecast
Issued by NWS Green Bay, WI

Home | Current Version | Previous Version | Graphics & Text | Print | Product List | Glossary On
Versions: 1 2 3 4 5 6 7 8 9 10 11 12 13 14 15 16 17 18 19 20 21 22 23 24 25 26 27 28 29 30 31 32 33 34 35 36 37 38 39 40
000
FTUS43 KGRB 151600 AAB
TAFGRB
TAF AMD
KGRB 151614Z 1516/1612 18005KT 1/4SM FG OVC002
      TEMPO 1516/1519 1SM BR OVC004
     FM151900 18006KT 1SM BR OVC005
      TEMPO 1520/1524 1SM -RA BR OVC010
     FM160000 13006KT 1SM -RA BR OVC006
     FM160700 05005KT 1SM -RA BR OVC004=

USA.gov is the U.S. government's official web portal to all federal, state and local government web resources and services.